createdAt,value
2022-12-11T00:01:17.611Z,94004.20
2022-12-11T00:03:48.153Z,93999.54
2022-12-11T00:06:20.123Z,93985.90
2022-12-11T00:08:53.212Z,93982.31
2022-12-11T00:11:23.178Z,93976.29
2022-12-11T00:13:51.421Z,93972.23
2022-12-11T00:16:25.317Z,93977.69
2022-12-11T00:18:55.717Z,93964.95
2022-12-11T00:21:23.900Z,93956.99
2022-12-11T00:23:52.325Z,93952.16
2022-12-11T00:26:21.037Z,93953.20
2022-12-11T00:28:54.349Z,93954.27
2022-12-11T00:31:23.815Z,93946.82
2022-12-11T00:33:52.330Z,93937.93
2022-12-11T00:36:24.458Z,93939.52
2022-12-11T00:38:53.975Z,93943.91
2022-12-11T00:41:22.857Z,93942.04
2022-12-11T00:43:51.284Z,93940.48
2022-12-11T00:46:19.756Z,93941.88
2022-12-11T00:48:50.066Z,93940.20
2022-12-11T00:51:18.364Z,93931.27
2022-12-11T00:53:46.857Z,93925.68
2022-12-11T00:56:21.009Z,93919.89
2022-12-11T00:58:49.985Z,93908.70
2022-12-11T01:01:21.423Z,93900.86
2022-12-11T01:03:50.222Z,93899.09
2022-12-11T01:06:22.102Z,93901.35
2022-12-11T01:09:13.523Z,93901.02
2022-12-11T01:11:49.342Z,93900.95
2022-12-11T01:14:18.146Z,93900.75
2022-12-11T01:16:46.577Z,93897.84
2022-12-11T01:19:15.803Z,93897.72
2022-12-11T01:21:44.189Z,93900.84
2022-12-11T01:24:12.447Z,93896.05
2022-12-11T01:26:40.683Z,93895.98
2022-12-11T01:29:08.857Z,93898.56
2022-12-11T01:31:37.975Z,93896.16
2022-12-11T01:34:06.236Z,93889.89
2022-12-11T01:36:34.501Z,93886.79
2022-12-11T01:39:02.738Z,93889.58
2022-12-11T01:41:31.025Z,93889.17
2022-12-11T01:44:19.502Z,93882.20
2022-12-11T01:46:48.109Z,93882.11
2022-12-11T01:49:19.098Z,93879.33
2022-12-11T01:51:53.218Z,93880.75
2022-12-11T01:54:24.276Z,93874.20
2022-12-11T01:56:56.333Z,93870.74
2022-12-11T01:59:29.153Z,93869.26
2022-12-11T02:02:03.513Z,93862.60
2022-12-11T02:04:35.498Z,93862.07
2022-12-11T02:07:04.550Z,93862.22
2022-12-11T02:09:35.580Z,93859.98
2022-12-11T02:12:26.909Z,93853.56
2022-12-11T02:15:32.707Z,93848.38
2022-12-11T02:18:30.206Z,93843.76
2022-12-11T02:21:01.356Z,93837.36
2022-12-11T02:24:17.216Z,93830.70
2022-12-11T02:27:01.864Z,93830.75
2022-12-11T02:29:39.732Z,93828.02
2022-12-11T02:32:23.713Z,93827.98
2022-12-11T02:35:15.422Z,93827.23
2022-12-11T02:37:47.999Z,93822.98
2022-12-11T02:40:21.820Z,93821.31
2022-12-11T02:42:51.640Z,93812.86
2022-12-11T02:45:23.039Z,93808.71
2022-12-11T02:47:52.774Z,93802.94
2022-12-11T02:50:23.923Z,93804.39
2022-12-11T02:52:55.997Z,93796.83
2022-12-11T02:55:26.373Z,93795.14
2022-12-11T02:58:06.562Z,93795.72
2022-12-11T03:00:36.780Z,93795.94
2022-12-11T03:03:05.517Z,93797.39
2022-12-11T03:05:33.823Z,93796.89
2022-12-11T03:08:02.584Z,93792.01
2022-12-11T03:10:31.106Z,93792.29
2022-12-11T03:13:00.549Z,93789.60
2022-12-11T03:15:55.040Z,93783.42
2022-12-11T03:18:46.832Z,93788.53
2022-12-11T03:21:27.297Z,93794.14
2022-12-11T03:24:10.119Z,93793.21
2022-12-11T03:26:43.837Z,93783.90
2022-12-11T03:29:21.314Z,93785.76
2022-12-11T03:31:59.722Z,93780.93
2022-12-11T03:34:32.979Z,93773.60
2022-12-11T03:37:03.485Z,93764.44
2022-12-11T03:39:36.433Z,93756.33
2022-12-11T03:42:08.395Z,93747.64
2022-12-11T03:44:38.020Z,93741.23
2022-12-11T03:47:09.669Z,93742.52
2022-12-11T03:49:42.257Z,93736.54
2022-12-11T03:52:12.894Z,93726.11
2022-12-11T03:54:44.404Z,93721.59
2022-12-11T03:57:16.848Z,93717.71
2022-12-11T03:59:45.292Z,93712.21
2022-12-11T04:02:13.560Z,93715.54
2022-12-11T04:04:42.672Z,93719.74
2022-12-11T04:07:10.998Z,93717.73
2022-12-11T04:09:39.285Z,93706.60
2022-12-11T04:12:07.621Z,93701.14
2022-12-11T04:14:54.627Z,93698.29
2022-12-11T04:17:41.373Z,93697.26
2022-12-11T04:20:29.893Z,93696.61
2022-12-11T04:23:16.710Z,93686.58
2022-12-11T04:25:45.223Z,93692.98
2022-12-11T04:28:13.515Z,93686.66
2022-12-11T04:30:41.981Z,93682.71
2022-12-11T04:33:10.296Z,93687.54
2022-12-11T04:35:38.529Z,93686.52
2022-12-11T04:38:06.775Z,93681.08
2022-12-11T04:40:35.043Z,93688.65
2022-12-11T04:43:03.588Z,93686.30
2022-12-11T04:45:31.838Z,93682.08
2022-12-11T04:48:00.101Z,93684.38
2022-12-11T04:50:28.431Z,93684.82
2022-12-11T04:52:57.461Z,93687.65
2022-12-11T04:55:25.809Z,93686.30
2022-12-11T04:57:54.132Z,93685.81
2022-12-11T05:00:22.884Z,93684.17
2022-12-11T05:02:51.196Z,93676.39
2022-12-11T05:05:19.646Z,93683.00
2022-12-11T05:07:47.984Z,93682.86
2022-12-11T05:10:16.328Z,93677.75
2022-12-11T05:12:44.560Z,93683.13
2022-12-11T05:15:12.959Z,93686.02
2022-12-11T05:17:41.450Z,93672.02
2022-12-11T05:20:10.730Z,93685.59
2022-12-11T05:22:39.366Z,93683.61
2022-12-11T05:25:08.206Z,93688.14
2022-12-11T05:27:36.531Z,93681.26
2022-12-11T05:30:06.595Z,93685.04
2022-12-11T05:32:35.281Z,93689.23
2022-12-11T05:35:03.937Z,93686.50
2022-12-11T05:37:33.548Z,93685.14
2022-12-11T05:40:02.137Z,93684.95
2022-12-11T05:42:30.420Z,93685.87
2022-12-11T05:44:58.720Z,93688.95
2022-12-11T05:47:26.987Z,93692.77
2022-12-11T05:49:55.189Z,93692.27
2022-12-11T05:52:23.496Z,93691.51
2022-12-11T05:54:51.861Z,93691.73
2022-12-11T05:57:20.106Z,93694.02
2022-12-11T05:59:48.279Z,93690.63
2022-12-11T06:02:16.648Z,93692.55
2022-12-11T06:04:44.992Z,93694.30
2022-12-11T06:07:13.692Z,93702.17
2022-12-11T06:09:41.988Z,93707.71
2022-12-11T06:12:10.289Z,93711.89
2022-12-11T06:14:38.591Z,93711.46
2022-12-11T06:17:07.614Z,93709.67
2022-12-11T06:19:37.192Z,93715.91
2022-12-11T06:22:05.470Z,93713.80
2022-12-11T06:24:33.752Z,93713.30
2022-12-11T06:27:02.010Z,93722.50
2022-12-11T06:29:30.246Z,93731.38
2022-12-11T06:31:58.593Z,93736.17
2022-12-11T06:34:27.001Z,93747.95
2022-12-11T06:36:55.233Z,93747.83
2022-12-11T06:39:23.526Z,93745.05
2022-12-11T06:41:58.134Z,93742.11
2022-12-11T06:45:38.206Z,93746.66
2022-12-11T06:48:23.210Z,93759.97
2022-12-11T06:50:51.495Z,93768.10
2022-12-11T06:53:19.720Z,93767.82
2022-12-11T06:55:47.974Z,93771.09
2022-12-11T06:58:17.960Z,93762.48
2022-12-11T07:00:46.243Z,93761.17
2022-12-11T07:03:16.712Z,93760.52
2022-12-11T07:05:44.973Z,93761.26
2022-12-11T07:08:13.235Z,93765.71
2022-12-11T07:10:43.807Z,93766.46
2022-12-11T07:13:12.106Z,93775.61
2022-12-11T07:15:40.711Z,93782.09
2022-12-11T07:18:11.599Z,93776.26
2022-12-11T07:20:40.098Z,93777.61
2022-12-11T07:23:09.232Z,93787.15
2022-12-11T07:25:38.192Z,93798.15
2022-12-11T07:28:06.527Z,93803.77
2022-12-11T07:30:34.829Z,93803.55
2022-12-11T07:33:03.261Z,93812.11
2022-12-11T07:35:31.654Z,93815.69
2022-12-11T07:37:59.930Z,93824.45
2022-12-11T07:40:28.351Z,93821.89
2022-12-11T07:42:56.793Z,93822.40
2022-12-11T07:45:26.498Z,93834.95
2022-12-11T07:47:54.756Z,93847.13
2022-12-11T07:50:23.111Z,93851.09
2022-12-11T07:52:51.376Z,93860.73
2022-12-11T07:55:19.663Z,93873.23
2022-12-11T07:57:47.925Z,93886.36
2022-12-11T08:00:17.014Z,93894.59
2022-12-11T08:02:45.279Z,93901.27
2022-12-11T08:05:13.835Z,93903.91
2022-12-11T08:07:42.354Z,93909.27
2022-12-11T08:10:10.625Z,93917.73
2022-12-11T08:12:38.891Z,93931.88
2022-12-11T08:15:07.743Z,93936.32
2022-12-11T08:17:39.969Z,93941.54
2022-12-11T08:20:09.081Z,93951.61
2022-12-11T08:22:37.357Z,93968.08
2022-12-11T08:25:06.156Z,93973.17
2022-12-11T08:27:34.370Z,93994.08
2022-12-11T08:30:02.891Z,94008.09
2022-12-11T08:32:31.170Z,94009.38
2022-12-11T08:34:59.444Z,94020.94
2022-12-11T08:37:28.114Z,94021.00
2022-12-11T08:39:56.390Z,94024.81
2022-12-11T08:42:24.588Z,94018.10
2022-12-11T08:44:52.780Z,94022.52
2022-12-11T08:47:21.528Z,94020.40
2022-12-11T08:49:49.728Z,94026.27
2022-12-11T08:52:18.016Z,94029.33
2022-12-11T08:54:46.189Z,94032.42
2022-12-11T08:57:14.457Z,94041.65
2022-12-11T08:59:42.739Z,94049.80
2022-12-11T09:02:13.534Z,94051.56
2022-12-11T09:04:42.046Z,94066.02
2022-12-11T09:07:10.666Z,94070.87
2022-12-11T09:09:39.011Z,94075.20
2022-12-11T09:12:07.652Z,94070.59
2022-12-11T09:14:35.925Z,94087.98
2022-12-11T09:17:05.618Z,94105.98
2022-12-11T09:19:33.901Z,94119.41
2022-12-11T09:22:02.177Z,94120.77
2022-12-11T09:24:30.435Z,94119.73
2022-12-11T09:26:58.737Z,94111.53
2022-12-11T09:29:26.958Z,94111.13
2022-12-11T09:31:57.108Z,94113.52
2022-12-11T09:34:29.234Z,94111.84
2022-12-11T09:36:58.373Z,94124.09
2022-12-11T09:39:26.693Z,94127.67
2022-12-11T09:42:20.955Z,94130.42
2022-12-11T09:44:53.589Z,94141.98
2022-12-11T09:47:36.067Z,94129.46
2022-12-11T09:50:17.741Z,94114.82
2022-12-11T09:53:00.191Z,94143.45
2022-12-11T09:55:55.250Z,94170.20
2022-12-11T09:58:50.769Z,94189.06
2022-12-11T10:01:30.132Z,94198.27
2022-12-11T10:04:28.721Z,94200.77
2022-12-11T10:07:02.964Z,94193.73
2022-12-11T10:09:57.347Z,94188.78
2022-12-11T10:12:46.625Z,94193.84
2022-12-11T10:15:43.228Z,94204.56
2022-12-11T10:18:16.336Z,94205.09
2022-12-11T10:20:45.541Z,94204.77
2022-12-11T10:23:40.589Z,94204.70
2022-12-11T10:26:16.866Z,94203.58
2022-12-11T10:28:45.229Z,94204.03
2022-12-11T10:31:40.761Z,94208.56
2022-12-11T10:34:15.147Z,94205.48
2022-12-11T10:36:44.764Z,94205.96
2022-12-11T10:39:16.049Z,94219.33
2022-12-11T10:41:46.952Z,94229.76
2022-12-11T10:44:33.264Z,94231.36
2022-12-11T10:47:13.948Z,94239.67
2022-12-11T10:50:00.562Z,94235.04
2022-12-11T10:52:34.491Z,94234.11
2022-12-11T10:55:07.031Z,94227.33
2022-12-11T10:57:37.315Z,94224.94
2022-12-11T11:00:26.638Z,94234.12
2022-12-11T11:02:55.598Z,94243.95
2022-12-11T11:05:36.105Z,94259.75
2022-12-11T11:08:20.229Z,94275.69
2022-12-11T11:10:57.591Z,94290.16
2022-12-11T11:13:29.125Z,94296.13
2022-12-11T11:16:04.608Z,94296.13
2022-12-11T11:18:34.360Z,94300.83
2022-12-11T11:21:03.431Z,94311.36
2022-12-11T11:23:31.857Z,94321.13
2022-12-11T11:26:02.725Z,94326.55
2022-12-11T11:28:34.254Z,94333.73
2022-12-11T11:31:15.834Z,94333.43
2022-12-11T11:33:54.157Z,94335.58
2022-12-11T11:36:28.125Z,94338.14
2022-12-11T11:39:29.812Z,94336.90
2022-12-11T11:42:21.300Z,94332.09
2022-12-11T11:45:10.347Z,94343.80
2022-12-11T11:47:51.453Z,94352.87
2022-12-11T11:50:24.963Z,94367.69
2022-12-11T11:53:04.125Z,94370.39
2022-12-11T11:55:39.852Z,94378.52
2022-12-11T11:58:15.902Z,94382.14
2022-12-11T12:00:44.233Z,94380.49
2022-12-11T12:03:18.496Z,94388.85
2022-12-11T12:05:58.453Z,94373.70
2022-12-11T12:08:32.700Z,94366.36
2022-12-11T12:11:00.953Z,94368.13
2022-12-11T12:13:58.308Z,94368.99
2022-12-11T12:16:56.229Z,94375.71
2022-12-11T12:19:33.412Z,94376.20
2022-12-11T12:22:16.853Z,94382.54
2022-12-11T12:24:53.879Z,94391.63
2022-12-11T12:27:51.740Z,94400.57
2022-12-11T12:30:23.037Z,94410.10
2022-12-11T12:33:13.109Z,94419.98
2022-12-11T12:36:18.141Z,94423.45
2022-12-11T12:39:01.321Z,94421.86
2022-12-11T12:41:47.484Z,94430.69
2022-12-11T12:44:19.279Z,94430.89
2022-12-11T12:47:00.341Z,94429.60
2022-12-11T12:49:33.116Z,94436.43
2022-12-11T12:52:02.888Z,94437.31
2022-12-11T12:54:33.514Z,94440.40
2022-12-11T12:57:04.326Z,94444.20
2022-12-11T12:59:32.486Z,94445.94
2022-12-11T13:02:03.200Z,94446.64
2022-12-11T13:04:56.317Z,94449.49
2022-12-11T13:07:32.871Z,94450.16
2022-12-11T13:10:28.428Z,94452.42
2022-12-11T13:12:57.423Z,94455.02
2022-12-11T13:15:44.027Z,94458.25
2022-12-11T13:18:36.200Z,94468.77
2022-12-11T13:21:32.479Z,94477.47
2022-12-11T13:24:13.117Z,94476.23
2022-12-11T13:26:44.037Z,94480.13
2022-12-11T13:29:31.746Z,94484.45
2022-12-11T13:32:22.578Z,94485.52
2022-12-11T13:34:55.662Z,94484.33
2022-12-11T13:37:34.916Z,94478.74
2022-12-11T13:40:08.503Z,94475.31
2022-12-11T13:42:50.376Z,94485.79
2022-12-11T13:45:40.935Z,94489.83
2022-12-11T13:48:38.094Z,94491.84
2022-12-11T13:51:07.368Z,94489.55
2022-12-11T13:53:35.713Z,94495.10
2022-12-11T13:56:06.736Z,94494.68
2022-12-11T13:58:38.222Z,94494.15
2022-12-11T14:01:11.452Z,94499.16
2022-12-11T14:03:56.618Z,94505.36
2022-12-11T14:06:27.698Z,94497.77
2022-12-11T14:08:59.523Z,94490.73
2022-12-11T14:11:56.471Z,94490.14
2022-12-11T14:14:49.999Z,94490.02
2022-12-11T14:17:27.368Z,94497.47
2022-12-11T14:19:58.182Z,94507.81
2022-12-11T14:22:28.982Z,94511.34
2022-12-11T14:24:58.459Z,94515.61
2022-12-11T14:27:28.186Z,94515.76
2022-12-11T14:29:56.916Z,94520.45
2022-12-11T14:32:35.784Z,94533.21
2022-12-11T14:35:08.637Z,94537.96
2022-12-11T14:37:37.450Z,94544.07
2022-12-11T14:40:08.469Z,94547.47
2022-12-11T14:42:41.191Z,94545.75
2022-12-11T14:45:25.318Z,94555.52
2022-12-11T14:47:55.272Z,94563.21
2022-12-11T14:50:35.215Z,94574.61
2022-12-11T14:53:29.447Z,94580.92
2022-12-11T14:56:02.594Z,94583.30
2022-12-11T14:58:33.280Z,94586.27
2022-12-11T15:01:22.479Z,94588.13
2022-12-11T15:04:01.637Z,94590.18
2022-12-11T15:06:35.778Z,94590.31
2022-12-11T15:09:37.554Z,94590.99
2022-12-11T15:12:15.741Z,94594.77
2022-12-11T15:15:04.175Z,94595.86
2022-12-11T15:17:34.734Z,94600.44
2022-12-11T15:20:07.648Z,94607.37
2022-12-11T15:22:39.318Z,94605.44
2022-12-11T15:25:21.837Z,94612.19
2022-12-11T15:27:59.775Z,94612.51
2022-12-11T15:30:31.356Z,94615.36
2022-12-11T15:33:11.729Z,94619.96
2022-12-11T15:35:52.402Z,94618.77
2022-12-11T15:38:47.627Z,94624.27
2022-12-11T15:41:26.056Z,94620.94
2022-12-11T15:43:58.835Z,94623.45
2022-12-11T15:46:28.007Z,94627.50
2022-12-11T15:48:57.735Z,94629.10
2022-12-11T15:51:27.768Z,94631.02
2022-12-11T15:53:56.045Z,94624.63
2022-12-11T15:56:26.637Z,94627.99
2022-12-11T15:59:01.325Z,94630.73
2022-12-11T16:01:29.574Z,94634.82
2022-12-11T16:04:01.801Z,94634.75
2022-12-11T16:06:33.564Z,94626.86
2022-12-11T16:09:04.197Z,94631.73
2022-12-11T16:11:32.492Z,94638.02
2022-12-11T16:14:04.374Z,94635.63
2022-12-11T16:16:32.841Z,94635.67
2022-12-11T16:19:01.091Z,94638.15
2022-12-11T16:21:29.475Z,94646.25
2022-12-11T16:23:57.766Z,94644.10
2022-12-11T16:26:26.126Z,94641.27
2022-12-11T16:29:01.795Z,94642.56
2022-12-11T16:31:32.577Z,94644.94
2022-12-11T16:34:03.195Z,94647.89
2022-12-11T16:36:31.576Z,94651.41
2022-12-11T16:39:01.665Z,94657.08
2022-12-11T16:41:30.125Z,94658.81
2022-12-11T16:44:01.220Z,94655.15
2022-12-11T16:46:29.646Z,94650.98
2022-12-11T16:48:57.969Z,94647.98
2022-12-11T16:51:26.272Z,94642.29
2022-12-11T16:53:56.898Z,94640.24
2022-12-11T16:56:26.722Z,94644.45
2022-12-11T16:58:57.512Z,94644.06
2022-12-11T17:01:25.812Z,94646.67
2022-12-11T17:03:54.924Z,94645.02
2022-12-11T17:06:23.700Z,94655.39
2022-12-11T17:08:53.583Z,94659.63
2022-12-11T17:11:26.434Z,94664.70
2022-12-11T17:13:56.333Z,94668.73
2022-12-11T17:16:26.609Z,94672.34
2022-12-11T17:18:58.447Z,94679.95
2022-12-11T17:21:26.949Z,94678.56
2022-12-11T17:23:55.330Z,94678.97
2022-12-11T17:26:25.404Z,94689.15
2022-12-11T17:28:53.838Z,94692.16
2022-12-11T17:31:22.175Z,94695.69
2022-12-11T17:33:50.620Z,94702.20
2022-12-11T17:36:21.120Z,94707.73
2022-12-11T17:38:50.181Z,94712.21
2022-12-11T17:41:21.137Z,94719.56
2022-12-11T17:43:53.326Z,94723.30
2022-12-11T17:46:21.756Z,94721.20
2022-12-11T17:48:50.231Z,94718.51
2022-12-11T17:51:24.745Z,94723.70
2022-12-11T17:53:56.171Z,94721.87
2022-12-11T17:56:26.179Z,94718.86
2022-12-11T17:58:54.585Z,94723.16
2022-12-11T18:01:22.816Z,94725.60
2022-12-11T18:03:51.219Z,94729.02
2022-12-11T18:06:19.580Z,94729.20
2022-12-11T18:08:47.978Z,94736.81
2022-12-11T18:11:18.635Z,94741.36
2022-12-11T18:13:48.973Z,94744.19
2022-12-11T18:16:21.224Z,94743.61
2022-12-11T18:18:50.566Z,94748.20
2022-12-11T18:21:25.404Z,94748.79
2022-12-11T18:23:54.195Z,94755.89
2022-12-11T18:26:25.726Z,94753.64
2022-12-11T18:28:54.764Z,94756.77
2022-12-11T18:31:23.642Z,94756.90
2022-12-11T18:33:52.944Z,94767.91
2022-12-11T18:36:22.168Z,94776.12
2022-12-11T18:38:50.500Z,94772.58
2022-12-11T18:41:20.169Z,94773.98
2022-12-11T18:43:48.579Z,94775.27
2022-12-11T18:46:20.174Z,94775.20
2022-12-11T18:48:48.721Z,94778.30
2022-12-11T18:51:23.823Z,94789.55
2022-12-11T18:53:52.628Z,94795.79
2022-12-11T18:56:21.545Z,94790.89
2022-12-11T18:58:51.879Z,94783.68
2022-12-11T19:01:24.446Z,94779.18
2022-12-11T19:04:05.568Z,94779.73
2022-12-11T19:06:37.339Z,94777.92
2022-12-11T19:09:07.854Z,94773.84
2022-12-11T19:11:39.714Z,94778.17
2022-12-11T19:14:08.673Z,94785.46
2022-12-11T19:16:40.728Z,94797.25
2022-12-11T19:19:14.482Z,94800.38
2022-12-11T19:21:43.608Z,94804.86
2022-12-11T19:24:18.294Z,94804.30
2022-12-11T19:26:46.661Z,94816.13
2022-12-11T19:29:21.667Z,94824.20
2022-12-11T19:31:50.052Z,94828.72
2022-12-11T19:34:18.605Z,94835.42
2022-12-11T19:36:47.683Z,94843.18
2022-12-11T19:39:16.262Z,94843.20
2022-12-11T19:41:44.533Z,94842.86
2022-12-11T19:44:12.872Z,94844.74
2022-12-11T19:46:41.607Z,94838.85
2022-12-11T19:49:11.968Z,94835.87
2022-12-11T19:51:42.100Z,94827.23
2022-12-11T19:54:14.627Z,94830.30
2022-12-11T19:56:43.616Z,94832.36
2022-12-11T19:59:16.672Z,94827.16
2022-12-11T20:01:48.329Z,94819.45
2022-12-11T20:04:17.972Z,94816.27
2022-12-11T20:06:47.543Z,94808.98
2022-12-11T20:09:16.428Z,94809.99
2022-12-11T20:11:45.676Z,94817.64
2022-12-11T20:14:20.057Z,94816.02
2022-12-11T20:19:39.429Z,94824.09
2022-12-11T20:22:07.786Z,94825.95
2022-12-11T20:24:36.458Z,94831.98
2022-12-11T20:27:05.087Z,94840.69
2022-12-11T20:29:33.393Z,94835.52
2022-12-11T20:32:01.741Z,94839.77
2022-12-11T20:34:29.915Z,94847.45
2022-12-11T20:37:00.323Z,94842.42
2022-12-11T20:39:29.257Z,94838.55
2022-12-11T20:41:57.975Z,94843.69
2022-12-11T20:44:26.381Z,94845.15
2022-12-11T20:46:55.324Z,94844.15
2022-12-11T20:49:23.706Z,94843.57
2022-12-11T20:51:52.076Z,94841.84
2022-12-11T20:54:20.430Z,94845.23
2022-12-11T20:56:48.792Z,94857.10
2022-12-11T20:59:17.684Z,94866.79
2022-12-11T21:01:46.233Z,94869.23
2022-12-11T21:04:14.571Z,94868.45
2022-12-11T21:06:42.948Z,94866.25
2022-12-11T21:09:14.404Z,94870.84
2022-12-11T21:11:42.687Z,94875.09
2022-12-11T21:14:11.013Z,94875.38
2022-12-11T21:16:39.552Z,94869.05
2022-12-11T21:19:10.211Z,94866.05
2022-12-11T21:21:43.107Z,94863.36
2022-12-11T21:24:18.769Z,94869.24
2022-12-11T21:26:48.198Z,94869.33
2022-12-11T21:29:17.220Z,94868.18
2022-12-11T21:31:45.547Z,94865.48
2022-12-11T21:34:14.227Z,94868.77
2022-12-11T21:36:42.509Z,94871.02
2022-12-11T21:39:12.339Z,94871.36
2022-12-11T21:41:41.466Z,94873.87
2022-12-11T21:46:59.665Z,94871.98
2022-12-11T21:49:27.962Z,94862.48
2022-12-11T21:51:56.521Z,94852.33
2022-12-11T21:54:24.837Z,94854.19
2022-12-11T21:56:58.844Z,94852.09
2022-12-11T21:59:28.817Z,94858.09
2022-12-11T22:01:57.125Z,94857.27
2022-12-11T22:04:25.414Z,94860.23
2022-12-11T22:06:53.887Z,94861.35
2022-12-11T22:09:22.178Z,94857.92
2022-12-11T22:11:55.041Z,94860.37
2022-12-11T22:14:26.943Z,94863.67
2022-12-11T22:16:55.258Z,94861.25
2022-12-11T22:19:27.745Z,94858.98
2022-12-11T22:21:58.987Z,94855.67
2022-12-11T22:24:27.251Z,94853.45
2022-12-11T22:26:55.535Z,94854.28
2022-12-11T22:29:23.916Z,94856.14
2022-12-11T22:31:53.033Z,94853.13
2022-12-11T22:34:22.125Z,94859.02
2022-12-11T22:36:50.479Z,94859.34
2022-12-11T22:39:18.855Z,94856.05
2022-12-11T22:41:47.186Z,94858.22
2022-12-11T22:44:18.439Z,94856.44
2022-12-11T22:46:49.959Z,94852.98
2022-12-11T22:49:20.023Z,94853.19
2022-12-11T22:51:49.155Z,94858.58
2022-12-11T22:54:17.531Z,94858.19
2022-12-11T22:56:45.810Z,94866.34
2022-12-11T22:59:14.039Z,94874.18
2022-12-11T23:01:42.405Z,94881.08
2022-12-11T23:04:10.698Z,94885.85
2022-12-11T23:06:41.553Z,94890.81
2022-12-11T23:09:11.292Z,94892.45
2022-12-11T23:11:40.120Z,94894.36
2022-12-11T23:14:13.518Z,94895.67
2022-12-11T23:16:42.091Z,94890.80
2022-12-11T23:19:11.718Z,94883.00
2022-12-11T23:21:40.559Z,94884.67
2022-12-11T23:24:09.412Z,94896.49
2022-12-11T23:26:38.600Z,94897.39
2022-12-11T23:29:06.949Z,94901.17
2022-12-11T23:31:35.412Z,94915.63
2022-12-11T23:34:03.644Z,94920.73
2022-12-11T23:36:31.966Z,94922.88
2022-12-11T23:39:00.237Z,94926.65
2022-12-11T23:41:28.452Z,94927.55
2022-12-11T23:43:56.677Z,94922.47
2022-12-11T23:46:25.618Z,94918.36
2022-12-11T23:48:54.661Z,94920.38
2022-12-11T23:51:25.091Z,94927.86
2022-12-11T23:53:53.538Z,94930.20
2022-12-11T23:56:25.015Z,94931.33
2022-12-11T23:58:54.151Z,94928.48
